Time;durP1;ratioP1;P1;durP2;ratioP2;P2;SDS_P1;SDS_P2;PMS_P1;PMS_P2;Temp;Humidity;BMP_temperature;BMP_pressure;BME280_temperature;BME280_humidity;BME280_pressure;Samples;Min_cycle;Max_cycle;Signal;HPM_P1;HPM_P2
2022/07/25 00:00:38;;;;;;;1.67;0.93;;;22.80;99.90;;;;;;5095611;28;20020;-76
2022/07/25 00:03:04;;;;;;;3.47;1.10;;;23.00;99.90;;;;;;5096912;28;20459;-76
2022/07/25 00:05:29;;;;;;;1.55;1.13;;;22.80;99.90;;;;;;5095469;28;20035;-76
2022/07/25 00:07:55;;;;;;;2.15;1.30;;;22.80;99.90;;;;;;5096769;28;20111;-76
2022/07/25 00:10:20;;;;;;;3.90;0.82;;;22.80;99.90;;;;;;5096524;28;20020;-76
2022/07/25 00:12:46;;;;;;;2.40;1.00;;;22.80;99.90;;;;;;5096916;28;20020;-77
2022/07/25 00:15:12;;;;;;;0.85;0.68;;;22.80;99.90;;;;;;5096603;28;20036;-76
2022/07/25 00:17:38;;;;;;;1.15;0.75;;;22.70;99.90;;;;;;5097124;28;20047;-76
2022/07/25 00:20:04;;;;;;;2.72;1.10;;;22.70;99.90;;;;;;5096398;28;20028;-76
2022/07/25 00:22:30;;;;;;;2.38;0.70;;;22.70;99.90;;;;;;5095186;28;20020;-76
2022/07/25 00:24:55;;;;;;;4.80;0.70;;;22.60;99.90;;;;;;5096458;28;20024;-77
2022/07/25 00:27:21;;;;;;;2.90;0.95;;;22.60;99.90;;;;;;5096652;28;20024;-76
2022/07/25 00:29:47;;;;;;;4.82;1.45;;;22.50;99.90;;;;;;5096210;28;20144;-76
2022/07/25 00:32:12;;;;;;;2.35;1.13;;;22.50;99.90;;;;;;5096766;28;20031;-76
2022/07/25 00:34:38;;;;;;;3.90;1.15;;;22.60;99.90;;;;;;5096241;28;20052;-76
2022/07/25 00:37:03;;;;;;;4.03;1.05;;;22.50;99.90;;;;;;5095004;28;20073;-76
2022/07/25 00:39:29;;;;;;;1.98;1.08;;;22.50;99.90;;;;;;5096046;28;20024;-76
2022/07/25 00:41:55;;;;;;;2.70;0.98;;;22.40;99.90;;;;;;5096599;28;20030;-76
2022/07/25 00:44:29;;;;;;;5.03;1.35;;;22.30;99.90;;;;;;5095976;28;20058;-76
2022/07/25 00:46:56;;;;;;;2.92;1.60;;;22.40;99.90;;;;;;5096067;28;20032;-76
2022/07/25 00:49:22;;;;;;;4.40;1.60;;;22.40;99.90;;;;;;5096207;28;20154;-76
2022/07/25 00:51:49;;;;;;;5.07;1.90;;;22.40;99.90;;;;;;5096220;28;20024;-76
2022/07/25 00:54:15;;;;;;;2.97;1.15;;;22.30;99.90;;;;;;5096461;28;20039;-76
2022/07/25 00:56:42;;;;;;;3.10;1.30;;;22.30;99.90;;;;;;5095406;28;20028;-76
2022/07/25 00:59:08;;;;;;;2.92;1.23;;;22.30;99.90;;;;;;5096082;28;20426;-76
2022/07/25 01:01:35;;;;;;;2.50;1.30;;;22.20;99.90;;;;;;5094481;28;20111;-76
2022/07/25 01:04:01;;;;;;;3.25;1.50;;;22.10;99.90;;;;;;5095581;28;20456;-76
2022/07/25 01:06:27;;;;;;;6.95;1.40;;;22.20;99.90;;;;;;5094314;28;20020;-76
2022/07/25 01:08:54;;;;;;;2.40;1.55;;;22.00;99.90;;;;;;5094234;28;20507;-76
2022/07/25 01:11:20;;;;;;;3.67;1.35;;;22.00;99.90;;;;;;5094210;28;20381;-76
2022/07/25 01:13:46;;;;;;;1.60;0.93;;;21.90;99.90;;;;;;5095513;28;20027;-76
2022/07/25 01:16:12;;;;;;;2.13;1.20;;;21.80;99.90;;;;;;5094194;28;20024;-76
2022/07/25 01:18:37;;;;;;;4.80;1.90;;;21.70;99.90;;;;;;5095624;28;20027;-76
2022/07/25 01:21:04;;;;;;;5.03;1.00;;;21.70;99.90;;;;;;5095272;28;20023;-76
2022/07/25 01:23:30;;;;;;;5.28;2.00;;;21.60;99.90;;;;;;5095173;28;20106;-76
2022/07/25 01:25:55;;;;;;;3.13;1.60;;;21.50;99.90;;;;;;5095314;28;20096;-76
2022/07/25 01:28:21;;;;;;;2.08;1.02;;;21.50;99.90;;;;;;5095244;28;20019;-76
2022/07/25 01:30:47;;;;;;;2.92;1.52;;;21.40;99.90;;;;;;5095272;28;20049;-76
2022/07/25 01:33:17;;;;;;;3.72;1.98;;;21.40;99.90;;;;;;5095363;28;20020;-76
2022/07/25 01:35:43;;;;;;;7.57;1.30;;;21.30;99.90;;;;;;5095587;28;20121;-76
2022/07/25 01:38:09;;;;;;;5.07;1.67;;;21.20;99.90;;;;;;5094975;28;20020;-76
2022/07/25 01:40:35;;;;;;;2.38;1.33;;;21.10;99.90;;;;;;5093651;28;20046;-76
2022/07/25 01:43:00;;;;;;;3.83;1.65;;;21.10;99.90;;;;;;5094888;28;20026;-76
2022/07/25 01:45:26;;;;;;;3.33;1.48;;;21.10;99.90;;;;;;5094780;28;20024;-76
2022/07/25 01:47:51;;;;;;;4.18;1.45;;;21.00;99.90;;;;;;5093568;28;20039;-76
2022/07/25 01:50:17;;;;;;;2.22;1.27;;;21.00;99.90;;;;;;5093415;28;20097;-76
2022/07/25 01:52:43;;;;;;;2.50;1.50;;;21.00;99.90;;;;;;5094733;28;20054;-76
2022/07/25 01:55:09;;;;;;;2.13;1.00;;;21.00;99.90;;;;;;5094665;28;20020;-76
2022/07/25 01:57:35;;;;;;;2.30;0.90;;;20.90;99.90;;;;;;5094606;28;20036;-76
2022/07/25 02:00:01;;;;;;;2.85;1.40;;;21.00;99.90;;;;;;5093318;28;20031;-76
2022/07/25 02:02:26;;;;;;;2.10;1.13;;;20.90;99.90;;;;;;5094488;28;20107;-75
2022/07/25 02:04:52;;;;;;;2.92;1.33;;;20.90;99.90;;;;;;5094663;28;20065;-76
2022/07/25 02:07:20;;;;;;;2.63;1.33;;;20.80;99.90;;;;;;5094146;28;20032;-77
2022/07/25 02:09:46;;;;;;;3.55;1.48;;;20.80;99.90;;;;;;5094177;28;20028;-76
2022/07/25 02:12:11;;;;;;;4.90;1.70;;;20.80;99.90;;;;;;5093989;28;20026;-76
2022/07/25 02:14:37;;;;;;;6.63;2.65;;;20.80;99.90;;;;;;5094085;28;20051;-76
2022/07/25 02:17:03;;;;;;;9.80;2.33;;;20.80;99.90;;;;;;5092565;28;20417;-76
2022/07/25 02:19:29;;;;;;;3.65;1.23;;;20.80;99.90;;;;;;5094432;28;20063;-76
2022/07/25 02:21:54;;;;;;;4.05;1.98;;;20.70;99.90;;;;;;5094104;28;20404;-76
2022/07/25 02:24:20;;;;;;;2.42;1.27;;;20.70;99.90;;;;;;5094179;28;20028;-76
2022/07/25 02:26:45;;;;;;;4.82;2.10;;;20.70;99.90;;;;;;5094029;28;20016;-76
2022/07/25 02:29:11;;;;;;;3.33;1.35;;;20.70;99.90;;;;;;5092340;28;20061;-76
2022/07/25 02:31:37;;;;;;;2.97;1.33;;;20.60;99.90;;;;;;5092137;28;20024;-77
2022/07/25 02:34:03;;;;;;;2.33;0.95;;;20.60;99.90;;;;;;5093797;28;20103;-77
2022/07/25 02:36:28;;;;;;;3.40;1.77;;;20.60;99.90;;;;;;5092355;28;20058;-76
2022/07/25 02:38:54;;;;;;;1.77;1.27;;;20.60;99.90;;;;;;5093426;28;20034;-76
2022/07/25 02:41:19;;;;;;;3.72;1.50;;;20.60;99.90;;;;;;5092299;28;20030;-76
2022/07/25 02:43:45;;;;;;;2.45;1.30;;;20.50;99.90;;;;;;5094134;28;20077;-76
2022/07/25 02:46:10;;;;;;;1.73;1.17;;;20.60;99.90;;;;;;5093550;28;20050;-76
2022/07/25 02:48:36;;;;;;;2.08;1.15;;;20.50;99.90;;;;;;5094442;28;20396;-76
2022/07/25 02:51:02;;;;;;;6.35;2.00;;;20.50;99.90;;;;;;5093860;28;20066;-76
2022/07/25 02:53:27;;;;;;;4.93;1.50;;;20.50;99.90;;;;;;5093450;28;20059;-76
2022/07/25 02:55:53;;;;;;;1.75;1.33;;;20.40;99.90;;;;;;5093611;28;20020;-77
2022/07/25 02:58:18;;;;;;;2.13;1.52;;;20.40;99.90;;;;;;5092278;28;20394;-77
2022/07/25 03:00:44;;;;;;;4.15;1.73;;;20.30;99.90;;;;;;5093365;28;20073;-77
2022/07/25 03:03:09;;;;;;;18.27;2.65;;;20.30;99.90;;;;;;5093056;28;20016;-77
2022/07/25 03:05:35;;;;;;;2.45;1.55;;;20.30;99.90;;;;;;5093481;28;20039;-77
2022/07/25 03:08:00;;;;;;;4.65;1.73;;;20.30;99.90;;;;;;5093129;28;20024;-77
2022/07/25 03:10:26;;;;;;;3.38;2.22;;;20.20;99.90;;;;;;5093263;28;20484;-77
2022/07/25 03:12:52;;;;;;;6.25;2.30;;;20.20;99.90;;;;;;5091790;28;20491;-77
2022/07/25 03:15:18;;;;;;;2.90;1.73;;;20.20;99.90;;;;;;5092941;28;20097;-77
2022/07/25 03:17:44;;;;;;;7.65;2.28;;;20.20;99.90;;;;;;5092898;28;20390;-77
2022/07/25 03:20:10;;;;;;;3.00;1.90;;;20.20;99.90;;;;;;5096602;28;20024;-77
2022/07/25 03:22:35;;;;;;;4.78;2.58;;;20.20;99.90;;;;;;5097291;28;20024;-77
2022/07/25 03:25:01;;;;;;;4.38;2.55;;;20.30;99.90;;;;;;5097155;28;20034;-76
2022/07/25 03:27:27;;;;;;;5.57;2.53;;;20.30;99.90;;;;;;5097183;28;20027;-76
2022/07/25 03:29:53;;;;;;;7.28;2.75;;;20.30;99.90;;;;;;5096918;28;20047;-77
2022/07/25 03:32:19;;;;;;;4.60;2.47;;;20.30;99.90;;;;;;5095550;28;20404;-76
2022/07/25 03:34:44;;;;;;;5.13;3.28;;;20.40;99.90;;;;;;5097594;28;20016;-76
2022/07/25 03:37:10;;;;;;;3.83;2.85;;;20.40;99.90;;;;;;5097087;28;20059;-76
2022/07/25 03:39:35;;;;;;;4.60;2.88;;;20.30;99.90;;;;;;5096787;28;20388;-76
2022/07/25 03:42:01;;;;;;;4.57;2.92;;;20.40;99.90;;;;;;5096126;28;20381;-76
2022/07/25 03:44:27;;;;;;;4.57;3.35;;;20.40;99.90;;;;;;5096967;28;20031;-76
2022/07/25 03:46:54;;;;;;;8.00;2.67;;;20.50;99.90;;;;;;5096759;28;20016;-76
2022/07/25 03:49:20;;;;;;;4.97;2.78;;;20.50;99.90;;;;;;5095430;28;20493;-76
2022/07/25 03:51:45;;;;;;;5.28;2.88;;;20.50;99.90;;;;;;5096619;28;20012;-76
2022/07/25 03:54:14;;;;;;;6.53;3.88;;;20.50;99.90;;;;;;5096601;28;20059;-76
2022/07/25 03:56:41;;;;;;;;;;;20.50;99.90;;;;;;5097336;28;20525;-76
2022/07/25 03:59:08;;;;;;;6.93;3.13;;;20.50;99.90;;;;;;5095146;28;19908;-76
2022/07/25 04:01:34;;;;;;;5.60;2.90;;;20.50;99.90;;;;;;5094951;28;20454;-76
2022/07/25 04:04:00;;;;;;;5.50;3.30;;;20.50;99.90;;;;;;5094956;28;20044;-76
2022/07/25 04:06:26;;;;;;;6.47;3.00;;;20.50;99.90;;;;;;5096313;28;20020;-76
2022/07/25 04:08:53;;;;;;;7.60;3.47;;;20.50;99.90;;;;;;5094967;28;20028;-76
2022/07/25 04:11:19;;;;;;;5.97;3.58;;;20.50;99.90;;;;;;5096535;28;20017;-76
2022/07/25 04:13:44;;;;;;;5.13;3.10;;;20.50;99.90;;;;;;5096233;28;20366;-77
2022/07/25 04:16:11;;;;;;;5.05;3.63;;;20.60;99.90;;;;;;5094971;28;20016;-77
2022/07/25 04:18:36;;;;;;;5.00;2.90;;;20.60;99.90;;;;;;5096241;28;20020;-77
2022/07/25 04:21:05;;;;;;;5.38;3.80;;;20.50;99.90;;;;;;5094537;28;20032;-77
2022/07/25 04:23:32;;;;;;;4.93;3.03;;;20.60;99.90;;;;;;5094728;28;20028;-76
2022/07/25 04:25:57;;;;;;;5.20;3.20;;;20.60;99.90;;;;;;5094474;28;20085;-76
2022/07/25 04:28:24;;;;;;;4.32;2.92;;;20.60;99.90;;;;;;5095945;28;20020;-76
2022/07/25 04:30:50;;;;;;;4.07;2.67;;;20.70;99.90;;;;;;5094847;28;20016;-76
2022/07/25 04:33:16;;;;;;;5.82;3.30;;;20.70;99.90;;;;;;5095700;28;20024;-77
2022/07/25 04:35:42;;;;;;;4.85;3.00;;;20.70;99.90;;;;;;5095789;28;20039;-77
2022/07/25 04:38:08;;;;;;;6.30;3.13;;;20.80;99.90;;;;;;5096213;28;20024;-74
2022/07/25 04:40:33;;;;;;;7.32;3.45;;;20.80;99.90;;;;;;5096027;28;20066;-76
2022/07/25 04:42:59;;;;;;;5.05;3.17;;;20.80;99.90;;;;;;5094393;28;20024;-76
2022/07/25 04:45:26;;;;;;;6.47;3.42;;;21.00;99.90;;;;;;5095720;28;20032;-76
2022/07/25 04:47:52;;;;;;;4.15;2.88;;;21.00;99.90;;;;;;5094694;28;20447;-76
2022/07/25 04:50:17;;;;;;;5.40;3.17;;;21.00;99.90;;;;;;5096196;28;20048;-76
2022/07/25 04:52:44;;;;;;;5.68;2.95;;;21.00;99.90;;;;;;5095838;28;20028;-76
2022/07/25 04:55:10;;;;;;;4.88;2.58;;;21.00;99.90;;;;;;5094630;28;20035;-76
2022/07/25 04:57:36;;;;;;;5.25;3.10;;;21.00;99.90;;;;;;5095836;28;20165;-77
2022/07/25 05:00:05;;;;;;;6.25;3.00;;;21.00;99.90;;;;;;5094687;28;20065;-77
2022/07/25 05:02:30;;;;;;;5.60;2.90;;;21.00;99.90;;;;;;5095635;28;20024;-77
2022/07/25 05:04:56;;;;;;;3.58;2.65;;;21.00;99.90;;;;;;5095652;28;20021;-77
2022/07/25 05:07:21;;;;;;;3.38;2.65;;;21.00;99.90;;;;;;5095619;28;20039;-77
2022/07/25 05:09:47;;;;;;;6.70;3.35;;;21.00;99.90;;;;;;5095475;28;20027;-77
2022/07/25 05:12:13;;;;;;;4.95;2.90;;;21.00;99.90;;;;;;5095497;28;20047;-77
2022/07/25 05:14:38;;;;;;;4.90;2.92;;;21.10;99.90;;;;;;5095515;28;20022;-77
2022/07/25 05:17:04;;;;;;;5.53;2.88;;;21.10;99.90;;;;;;5095439;28;20028;-77
2022/07/25 05:19:30;;;;;;;6.22;3.05;;;21.40;99.90;;;;;;5095387;28;20439;-77
2022/07/25 05:21:56;;;;;;;4.43;2.95;;;21.20;99.90;;;;;;5095332;28;20035;-77
2022/07/25 05:24:22;;;;;;;4.90;3.17;;;21.30;99.90;;;;;;5093923;28;20024;-77
2022/07/25 05:26:48;;;;;;;3.45;2.35;;;21.50;99.90;;;;;;5093925;28;20031;-77
2022/07/25 05:29:14;;;;;;;8.90;3.75;;;21.70;99.90;;;;;;5095100;28;20078;-77
2022/07/25 05:31:40;;;;;;;4.22;2.90;;;21.70;99.90;;;;;;5094485;28;20016;-77
2022/07/25 05:34:05;;;;;;;4.38;2.88;;;21.90;99.90;;;;;;5093360;28;20091;-76
2022/07/25 05:36:31;;;;;;;3.45;2.42;;;21.90;99.90;;;;;;5094535;28;20035;-76
2022/07/25 05:38:56;;;;;;;4.15;3.10;;;22.00;99.90;;;;;;5094508;28;20024;-77
2022/07/25 05:41:22;;;;;;;4.28;2.97;;;22.20;99.90;;;;;;5093244;28;20021;-77
2022/07/25 05:43:48;;;;;;;8.85;4.68;;;22.30;99.90;;;;;;5094343;28;20507;-77
2022/07/25 05:46:14;;;;;;;6.32;3.25;;;22.40;99.90;;;;;;5093179;28;20024;-77
2022/07/25 05:48:40;;;;;;;6.97;3.63;;;22.40;99.90;;;;;;5094363;28;20023;-76
2022/07/25 05:51:06;;;;;;;8.15;3.72;;;22.50;99.90;;;;;;5094456;28;20099;-77
2022/07/25 05:53:32;;;;;;;5.50;3.45;;;22.50;99.90;;;;;;5094153;28;20048;-76
2022/07/25 05:55:57;;;;;;;7.18;3.85;;;22.50;99.90;;;;;;5094369;28;20028;-76
2022/07/25 05:58:23;;;;;;;7.13;4.22;;;22.60;99.90;;;;;;5094427;28;20099;-76
2022/07/25 06:00:49;;;;;;;5.50;2.63;;;22.60;99.90;;;;;;5094139;28;20024;-77
2022/07/25 06:03:17;;;;;;;6.10;3.05;;;22.60;99.90;;;;;;5092768;28;20496;-77
2022/07/25 06:05:46;;;;;;;3.95;2.65;;;22.70;99.90;;;;;;5093872;28;20028;-76
2022/07/25 06:08:13;;;;;;;5.97;2.72;;;22.80;99.90;;;;;;5093723;28;20024;-77
2022/07/25 06:10:40;;;;;;;6.65;2.63;;;22.90;99.90;;;;;;5093745;28;20377;-77
2022/07/25 06:13:06;;;;;;;5.07;1.80;;;23.00;99.90;;;;;;5093862;28;20024;-77
2022/07/25 06:15:33;;;;;;;4.45;2.28;;;23.20;99.90;;;;;;5092727;28;20150;-77
2022/07/25 06:17:58;;;;;;;4.72;1.30;;;23.40;99.90;;;;;;5093877;28;20122;-77
2022/07/25 06:20:24;;;;;;;4.30;1.77;;;23.60;99.90;;;;;;5094058;28;20385;-77
2022/07/25 06:22:50;;;;;;;5.80;1.25;;;23.70;99.90;;;;;;5092511;28;20024;-77
2022/07/25 06:25:15;;;;;;;5.00;1.00;;;23.70;99.90;;;;;;5093910;28;20388;-77
2022/07/25 06:27:41;;;;;;;1.90;0.88;;;23.60;99.90;;;;;;5092411;28;20106;-77
2022/07/25 06:30:08;;;;;;;1.70;0.93;;;23.60;99.90;;;;;;5093698;28;20475;-77
2022/07/25 06:32:34;;;;;;;2.33;0.85;;;23.70;99.90;;;;;;5092213;28;20020;-77
2022/07/25 06:35:00;;;;;;;2.55;0.40;;;23.90;99.90;;;;;;5093331;28;20028;-77
2022/07/25 06:37:25;;;;;;;1.35;0.63;;;24.00;99.90;;;;;;5093763;28;20051;-77
2022/07/25 06:39:51;;;;;;;3.50;0.45;;;24.10;99.90;;;;;;5093520;28;20034;-77
2022/07/25 06:42:17;;;;;;;1.13;0.22;;;24.30;99.90;;;;;;5093264;28;20020;-77
2022/07/25 06:44:43;;;;;;;0.28;0.20;;;24.30;99.90;;;;;;5093371;28;20070;-76
2022/07/25 06:47:11;;;;;;;3.70;0.13;;;24.40;99.90;;;;;;5092487;28;20024;-76
2022/07/25 06:49:37;;;;;;;1.98;0.20;;;24.40;99.90;;;;;;5093879;28;20043;-75
2022/07/25 06:52:04;;;;;;;1.25;0.08;;;24.40;99.90;;;;;;5093761;28;20024;-75
2022/07/25 06:54:30;;;;;;;0.55;0.10;;;24.30;99.90;;;;;;5092041;28;20059;-75
2022/07/25 06:56:55;;;;;;;0.50;0.05;;;24.10;99.90;;;;;;5092437;28;20421;-75
2022/07/25 06:59:21;;;;;;;1.75;0.10;;;23.80;99.90;;;;;;5093523;28;20024;-75
2022/07/25 07:01:47;;;;;;;0.30;0.20;;;23.70;99.90;;;;;;5093848;28;20024;-75
2022/07/25 07:04:12;;;;;;;1.02;0.08;;;23.60;99.90;;;;;;5093576;28;20430;-75
2022/07/25 07:06:38;;;;;;;0.90;0.10;;;23.50;99.90;;;;;;5108879;22;20036;-76
2022/07/25 07:09:04;;;;;;;0.95;0.20;;;23.40;99.90;;;;;;5112369;28;20051;-76
2022/07/25 07:11:29;;;;;;;1.52;0.10;;;23.50;99.90;;;;;;5112503;28;20058;-76
2022/07/25 07:13:55;;;;;;;0.60;0.20;;;23.40;99.90;;;;;;5114440;28;20023;-76
2022/07/25 07:16:21;;;;;;;2.22;0.25;;;23.40;99.90;;;;;;5112539;28;20057;-77
2022/07/25 07:18:46;;;;;;;0.65;0.10;;;23.40;99.90;;;;;;5112530;28;20034;-76
2022/07/25 07:21:12;;;;;;;2.25;0.08;;;23.30;99.90;;;;;;5113715;28;20376;-76
2022/07/25 07:23:37;;;;;;;0.98;0.00;;;23.30;99.90;;;;;;5113674;28;20498;-76
2022/07/25 07:26:03;;;;;;;1.38;0.10;;;23.20;99.90;;;;;;5113688;28;20031;-76
2022/07/25 07:28:28;;;;;;;0.73;0.20;;;23.20;99.90;;;;;;5112412;28;20541;-76
2022/07/25 07:30:54;;;;;;;2.42;0.00;;;23.40;99.90;;;;;;5113587;28;20027;-76
2022/07/25 07:33:19;;;;;;;6.95;0.20;;;23.40;99.90;;;;;;5113587;28;20026;-76
2022/07/25 07:35:45;;;;;;;1.05;0.00;;;23.40;99.90;;;;;;5113532;28;20028;-76
2022/07/25 07:38:10;;;;;;;0.95;0.10;;;23.60;99.90;;;;;;5113561;28;20030;-76
2022/07/25 07:40:36;;;;;;;0.28;0.00;;;23.60;99.90;;;;;;5113674;28;20023;-76
2022/07/25 07:43:02;;;;;;;0.60;0.20;;;23.60;99.90;;;;;;5114066;28;20372;-76
2022/07/25 07:45:29;;;;;;;0.30;0.00;;;23.60;99.90;;;;;;5113373;28;20110;-77
2022/07/25 07:47:55;;;;;;;1.17;0.10;;;23.60;99.90;;;;;;5113755;28;20028;-76
2022/07/25 07:50:24;;;;;;;0.93;0.00;;;23.70;99.90;;;;;;5113467;28;20012;-76
2022/07/25 07:52:50;;;;;;;1.00;0.00;;;23.70;99.90;;;;;;5112190;28;20106;-76
2022/07/25 07:58:01;;;;;;;0.05;0.00;;;23.90;99.90;;;;;;5114321;28;20034;-76
2022/07/25 08:00:29;;;;;;;0.52;0.00;;;24.10;99.90;;;;;;5113302;28;20427;-76
2022/07/25 08:02:56;;;;;;;1.00;0.00;;;24.30;99.90;;;;;;5112093;28;20027;-76
2022/07/25 08:05:27;;;;;;;2.00;0.10;;;24.30;99.90;;;;;;5113493;28;20122;-76
2022/07/25 08:07:53;;;;;;;0.15;0.00;;;24.40;99.90;;;;;;5117161;28;20099;-76
2022/07/25 08:10:25;;;;;;;1.02;0.00;;;24.30;99.90;;;;;;5117121;28;20024;-76
2022/07/25 08:12:50;;;;;;;2.60;0.00;;;24.30;99.90;;;;;;5117198;28;20026;-76
2022/07/25 08:15:17;;;;;;;1.00;0.00;;;24.30;99.90;;;;;;5117287;28;20098;-76
2022/07/25 08:17:44;;;;;;;5.45;0.00;;;24.20;99.90;;;;;;5117101;27;20027;-76
2022/07/25 08:20:10;;;;;;;1.75;0.10;;;24.20;99.90;;;;;;5117365;28;20028;-76
2022/07/25 08:22:38;;;;;;;0.98;0.00;;;24.20;99.90;;;;;;5116854;28;20023;-76
2022/07/25 08:25:05;;;;;;;3.30;0.00;;;24.50;99.90;;;;;;5116805;28;20023;-76
2022/07/25 08:27:31;;;;;;;3.25;0.30;;;24.70;99.90;;;;;;5116784;28;20023;-76
2022/07/25 08:29:59;;;;;;;1.85;0.00;;;24.80;99.90;;;;;;5116619;28;20020;-76
2022/07/25 08:32:24;;;;;;;2.80;0.17;;;25.20;99.90;;;;;;5116815;28;20027;-76
2022/07/25 08:34:50;;;;;;;3.22;0.00;;;25.50;99.90;;;;;;5116651;28;20023;-76
2022/07/25 08:37:16;;;;;;;2.92;0.65;;;25.40;99.90;;;;;;5116610;28;20031;-76
2022/07/25 08:39:42;;;;;;;2.70;0.00;;;25.60;99.90;;;;;;5116483;28;20016;-76
2022/07/25 08:42:07;;;;;;;2.58;0.00;;;25.70;99.90;;;;;;5117148;28;20016;-76
2022/07/25 08:44:39;;;;;;;1.63;0.10;;;25.90;99.90;;;;;;5116786;27;20536;-76
2022/07/25 08:47:06;;;;;;;1.60;0.10;;;26.10;99.90;;;;;;5117216;28;20028;-77
2022/07/25 08:49:34;;;;;;;0.93;0.00;;;25.90;99.90;;;;;;5116317;28;20103;-76
2022/07/25 08:52:01;;;;;;;1.40;0.10;;;25.90;99.90;;;;;;5116318;27;20027;-76
2022/07/25 08:54:26;;;;;;;0.65;0.20;;;25.90;99.90;;;;;;5115016;28;20023;-77
2022/07/25 08:56:52;;;;;;;4.35;0.10;;;25.70;99.90;;;;;;5116544;28;20081;-76
2022/07/25 08:59:17;;;;;;;1.75;0.00;;;25.50;99.90;;;;;;5116109;28;20028;-76
2022/07/25 09:01:43;;;;;;;1.25;0.10;;;25.40;99.90;;;;;;5114879;28;20028;-76
2022/07/25 09:04:09;;;;;;;3.22;0.10;;;25.30;99.90;;;;;;5116279;28;20020;-76
2022/07/25 09:06:35;;;;;;;2.20;0.20;;;25.20;99.90;;;;;;5116359;28;20047;-76
2022/07/25 09:09:04;;;;;;;4.50;0.38;;;25.10;99.90;;;;;;5116554;28;20066;-76
2022/07/25 09:11:35;;;;;;;4.85;0.32;;;24.80;99.90;;;;;;5115881;28;20111;-76
2022/07/25 09:14:03;;;;;;;2.30;0.20;;;24.60;99.90;;;;;;5114690;28;20031;-76
2022/07/25 09:16:30;;;;;;;;;;;24.60;99.90;;;;;;5114693;28;20422;-76
2022/07/25 09:19:09;;;;;;;1.45;0.00;;;24.50;99.90;;;;;;5115877;28;19911;-76
2022/07/25 09:21:35;;;;;;;2.63;0.00;;;24.50;99.90;;;;;;5114493;28;20384;-76
2022/07/25 09:24:08;;;;;;;3.17;0.10;;;24.40;99.90;;;;;;5115681;28;20387;-77
2022/07/25 09:26:46;;;;;;;3.58;0.10;;;24.40;99.90;;;;;;5115926;28;20020;-77
2022/07/25 09:29:30;;;;;;;0.77;0.10;;;24.30;99.90;;;;;;5116263;28;20138;-76
2022/07/25 09:31:57;;;;;;;3.60;0.10;;;24.40;99.90;;;;;;5115630;28;20028;-77
2022/07/25 09:34:37;;;;;;;7.68;0.30;;;24.70;99.90;;;;;;5114234;28;20023;-76
2022/07/25 09:37:07;;;;;;;0.35;0.00;;;24.80;99.90;;;;;;5115887;28;20047;-76
2022/07/25 09:39:35;;;;;;;1.50;0.00;;;24.80;99.90;;;;;;5114120;28;20365;-76
2022/07/25 09:42:01;;;;;;;2.05;0.10;;;25.10;99.90;;;;;;5115446;28;20023;-76
2022/07/25 09:44:29;;;;;;;4.65;0.10;;;25.40;99.90;;;;;;5114010;28;20030;-76
2022/07/25 09:46:57;;;;;;;3.10;0.25;;;25.70;99.90;;;;;;5115348;28;20023;-76
2022/07/25 09:49:24;;;;;;;2.15;0.00;;;25.80;99.60;;;;;;5115211;28;20460;-76
2022/07/25 09:51:50;;;;;;;1.02;0.00;;;25.80;99.40;;;;;;5115776;28;20104;-76
2022/07/25 09:54:16;;;;;;;2.33;0.08;;;25.40;99.90;;;;;;5115205;28;20036;-76
2022/07/25 09:56:42;;;;;;;2.00;0.10;;;25.10;99.70;;;;;;5115084;28;20426;-76
2022/07/25 09:59:08;;;;;;;2.38;0.00;;;25.00;99.90;;;;;;5115012;28;20024;-76
2022/07/25 10:01:36;;;;;;;1.95;0.05;;;25.00;99.70;;;;;;5115088;28;20055;-76
2022/07/25 10:04:08;;;;;;;;;;;24.90;99.90;;;;;;5113991;28;20094;-76
2022/07/25 10:07:04;;;;;;;0.98;0.00;;;24.80;99.80;;;;;;5114824;28;19916;-76
2022/07/25 10:09:30;;;;;;;0.45;0.20;;;24.70;99.90;;;;;;5112598;28;20130;-76
2022/07/25 10:12:10;;;;;;;2.53;0.00;;;25.10;99.90;;;;;;5113512;28;20476;-76
2022/07/25 10:14:37;;;;;;;1.55;0.00;;;25.40;99.90;;;;;;5113733;28;20020;-76
2022/07/25 10:17:03;;;;;;;1.15;0.00;;;25.50;98.50;;;;;;5114706;28;20035;-76
2022/07/25 10:19:39;;;;;;;2.00;0.38;;;25.50;98.20;;;;;;5114575;28;20115;-76
2022/07/25 10:22:05;;;;;;;2.55;0.32;;;25.40;99.20;;;;;;5114937;28;20034;-76
2022/07/25 10:24:42;;;;;;;3.40;0.00;;;25.50;98.90;;;;;;5113271;28;20024;-77
2022/07/25 10:27:12;;;;;;;1.70;0.03;;;25.70;99.90;;;;;;5114388;28;20023;-77
2022/07/25 10:29:40;;;;;;;4.03;0.20;;;25.70;99.00;;;;;;5113769;28;20412;-76
2022/07/25 10:32:08;;;;;;;1.75;0.00;;;25.40;98.00;;;;;;5114708;28;20091;-76
2022/07/25 10:34:34;;;;;;;2.40;0.20;;;25.00;99.00;;;;;;5114666;28;20384;-77
2022/07/25 10:37:11;;;;;;;4.63;0.35;;;24.80;99.70;;;;;;5114902;28;20470;-77
2022/07/25 10:39:39;;;;;;;1.30;0.00;;;24.80;99.90;;;;;;5114771;28;20114;-76
2022/07/25 10:42:05;;;;;;;2.20;0.30;;;24.70;99.90;;;;;;5114297;28;20028;-76
2022/07/25 10:44:56;;;;;;;3.35;0.40;;;24.70;99.90;;;;;;5114403;28;20124;-76
2022/07/25 10:47:24;;;;;;;0.70;0.00;;;24.90;98.80;;;;;;5112915;28;20476;-76
2022/07/25 10:49:56;;;;;;;2.83;0.40;;;25.00;99.00;;;;;;5114332;28;20077;-76
2022/07/25 10:52:26;;;;;;;4.20;0.35;;;25.10;97.90;;;;;;5114755;28;20125;-77
2022/07/25 10:54:55;;;;;;;4.40;0.20;;;24.90;98.90;;;;;;5114103;28;20488;-77
2022/07/25 10:57:21;;;;;;;3.05;0.40;;;24.90;98.70;;;;;;5112705;28;20106;-76
2022/07/25 10:59:47;;;;;;;6.80;0.08;;;24.80;99.10;;;;;;5112667;28;20031;-76
2022/07/25 11:02:16;;;;;;;0.98;0.10;;;24.90;98.50;;;;;;5113971;28;20020;-76
2022/07/25 11:04:57;;;;;;;3.40;0.10;;;24.70;98.70;;;;;;5114139;28;20023;-76
2022/07/25 11:07:22;;;;;;;3.13;0.05;;;24.70;99.30;;;;;;5113851;28;20455;-76
2022/07/25 11:09:59;;;;;;;3.13;0.70;;;24.30;99.30;;;;;;5112652;28;20051;-76
2022/07/25 11:12:25;;;;;;;4.88;0.20;;;24.10;99.90;;;;;;5113855;28;20059;-77
2022/07/25 11:14:58;;;;;;;2.25;0.10;;;23.90;99.90;;;;;;5113953;28;20426;-77
2022/07/25 11:17:24;;;;;;;2.95;0.30;;;24.00;99.90;;;;;;5114411;28;20533;-76
2022/07/25 11:19:56;;;;;;;3.65;0.10;;;24.20;99.90;;;;;;5112285;28;20031;-76
2022/07/25 11:22:22;;;;;;;1.70;0.25;;;24.30;99.80;;;;;;5113695;28;20022;-76
2022/07/25 11:24:48;;;;;;;1.95;0.20;;;24.20;99.40;;;;;;5112289;28;20026;-76
2022/07/25 11:27:29;;;;;;;1.35;0.10;;;24.30;98.90;;;;;;5113712;28;20028;-76
2022/07/25 11:30:13;;;;;;;7.07;0.47;;;24.30;99.20;;;;;;5113699;28;20380;-77
2022/07/25 11:32:44;;;;;;;6.57;0.75;;;24.10;99.70;;;;;;5113586;28;20023;-77
2022/07/25 11:35:12;;;;;;;3.42;0.22;;;23.80;99.90;;;;;;5113671;28;20438;-77
2022/07/25 11:37:39;;;;;;;4.32;0.35;;;23.70;99.90;;;;;;5112412;28;20392;-78
2022/07/25 11:40:06;;;;;;;1.95;0.10;;;23.50;99.90;;;;;;5113951;28;20038;-77
2022/07/25 11:42:40;;;;;;;3.78;0.20;;;23.50;99.90;;;;;;5117634;28;20119;-77
2022/07/25 11:45:16;;;;;;;5.30;0.85;;;23.40;99.90;;;;;;5116410;28;20031;-77
2022/07/25 11:47:41;;;;;;;7.95;0.60;;;23.50;99.90;;;;;;5116374;28;20019;-77
2022/07/25 11:50:13;;;;;;;9.02;0.40;;;23.70;99.90;;;;;;5117607;28;20141;-77
2022/07/25 11:52:41;;;;;;;2.88;0.28;;;24.00;99.90;;;;;;5118126;28;20453;-77
2022/07/25 11:55:16;;;;;;;6.28;0.40;;;24.20;99.90;;;;;;5116318;28;20023;-77
2022/07/25 11:57:45;;;;;;;2.92;0.50;;;24.30;99.70;;;;;;5117764;27;20035;-78
2022/07/25 12:00:19;;;;;;;7.57;0.45;;;24.20;99.70;;;;;;5117463;28;20019;-77
2022/07/25 12:02:46;;;;;;;3.65;0.10;;;23.90;99.60;;;;;;5116230;28;20492;-77
2022/07/25 12:05:15;;;;;;;3.22;0.00;;;23.80;99.90;;;;;;5116027;28;20024;-77
2022/07/25 12:07:53;;;;;;;2.67;0.50;;;23.70;99.90;;;;;;5115927;28;20050;-77
2022/07/25 12:10:23;;;;;;;1.30;0.00;;;23.90;99.90;;;;;;5117493;28;20024;-77
2022/07/25 12:12:52;;;;;;;3.88;0.10;;;23.90;99.90;;;;;;5117111;28;20024;-77
2022/07/25 12:15:21;;;;;;;2.25;0.25;;;24.00;99.90;;;;;;5115957;28;20020;-78
2022/07/25 12:17:47;;;;;;;2.92;0.10;;;23.90;99.90;;;;;;5115768;28;20023;-77
2022/07/25 12:20:15;;;;;;;7.53;0.68;;;24.10;98.60;;;;;;5117144;28;20512;-77
2022/07/25 12:22:40;;;;;;;6.25;0.20;;;24.60;98.10;;;;;;5116881;28;20063;-78
2022/07/25 12:25:06;;;;;;;4.22;0.55;;;24.70;97.70;;;;;;5116807;28;20057;-78
2022/07/25 12:27:32;;;;;;;3.88;0.43;;;24.70;97.40;;;;;;5115618;28;20031;-77
2022/07/25 12:29:58;;;;;;;5.00;0.65;;;24.90;97.10;;;;;;5116751;28;20388;-77
2022/07/25 12:32:23;;;;;;;1.20;0.35;;;24.70;95.90;;;;;;5116749;28;20016;-77
2022/07/25 12:34:50;;;;;;;2.00;0.40;;;24.40;96.10;;;;;;5117060;28;20020;-77
2022/07/25 12:37:15;;;;;;;8.35;0.85;;;24.60;96.70;;;;;;5116873;28;20392;-77
2022/07/25 12:39:41;;;;;;;1.15;0.15;;;25.00;95.70;;;;;;5115412;28;20020;-77
2022/07/25 12:42:06;;;;;;;2.25;0.55;;;25.50;94.10;;;;;;5116694;28;20077;-77
2022/07/25 12:44:32;;;;;;;5.60;0.10;;;25.40;92.00;;;;;;5116607;28;20028;-77
2022/07/25 12:46:57;;;;;;;5.50;0.55;;;25.20;94.20;;;;;;5116607;28;20048;-77
2022/07/25 12:49:23;;;;;;;5.85;0.47;;;25.20;91.40;;;;;;5115212;28;20015;-77